Time;durP1;ratioP1;P1;durP2;ratioP2;P2;SDS_P1;SDS_P2;PMS_P1;PMS_P2;Temp;Humidity;BMP_temperature;BMP_pressure;BME280_temperature;BME280_humidity;BME280_pressure;Samples;Min_cycle;Max_cycle;Signal;HPM_P1;HPM_P2
2022/06/09 00:01:27;;;;;;;4.93;2.05;;;;;;;21.10;52.56;100818.47;4850214;29;20120;-80
2022/06/09 00:04:09;;;;;;;5.22;2.17;;;;;;;21.10;52.68;100821.09;4865170;29;20053;-80
2022/06/09 00:06:41;;;;;;;4.28;1.98;;;;;;;21.10;52.55;100828.94;4865465;29;20025;-80
2022/06/09 00:09:07;;;;;;;3.38;1.83;;;;;;;21.10;52.84;100826.31;4865016;29;20473;-80
2022/06/09 00:11:37;;;;;;;4.82;2.30;;;;;;;21.10;52.71;100830.66;4864803;29;20125;-80
2022/06/09 00:14:04;;;;;;;4.30;2.00;;;;;;;21.10;52.71;100838.53;4864524;29;20062;-80
2022/06/09 00:16:29;;;;;;;4.50;2.05;;;;;;;21.09;52.72;100832.44;4850448;29;20044;-80
2022/06/09 00:18:55;;;;;;;4.28;1.98;;;;;;;21.09;52.61;100837.66;4866201;29;20033;-80
2022/06/09 00:21:22;;;;;;;4.40;2.25;;;;;;;21.09;52.70;100844.66;4864110;29;20086;-80
2022/06/09 00:23:48;;;;;;;6.97;2.10;;;;;;;21.09;52.69;100837.66;4847193;29;20042;-80
2022/06/09 00:26:14;;;;;;;3.78;2.10;;;;;;;21.10;52.59;100830.66;4865667;29;20025;-80
2022/06/09 00:28:39;;;;;;;4.03;2.00;;;;;;;21.09;52.85;100834.19;4865975;29;20033;-80
2022/06/09 00:31:05;;;;;;;3.55;2.10;;;;;;;21.09;52.54;100835.06;4867732;29;20045;-80
2022/06/09 00:33:30;;;;;;;4.25;1.88;;;;;;;21.08;52.68;100837.72;4883768;29;20084;-80
2022/06/09 00:35:55;;;;;;;4.40;1.90;;;;;;;21.08;52.64;100838.59;4862207;29;20092;-80
2022/06/09 00:38:22;;;;;;;4.55;2.08;;;;;;;21.08;52.68;100843.81;4841700;29;20037;-80
2022/06/09 00:40:47;;;;;;;7.68;1.80;;;;;;;21.09;52.61;100849.91;4856743;29;20029;-80
2022/06/09 00:43:13;;;;;;;3.58;1.85;;;;;;;21.07;52.71;100855.16;4873076;29;20372;-80
2022/06/09 00:45:44;;;;;;;5.43;1.98;;;;;;;21.07;52.76;100865.63;4840524;29;20048;-80
2022/06/09 00:48:28;;;;;;;3.88;1.83;;;;;;;21.07;52.59;100849.94;4887310;29;20032;-81
2022/06/09 00:51:04;;;;;;;3.00;1.63;;;;;;;21.07;52.92;100859.53;4887024;29;20025;-80
2022/06/09 00:53:34;;;;;;;3.88;1.85;;;;;;;21.05;52.69;100862.19;4870297;29;20123;-80
2022/06/09 00:56:01;;;;;;;4.93;2.00;;;;;;;21.06;52.52;100863.06;4869960;29;20020;-80
2022/06/09 00:58:29;;;;;;;4.07;1.88;;;;;;;21.07;52.72;100875.25;4870070;29;20036;-80
2022/06/09 01:01:04;;;;;;;3.50;1.67;;;;;;;21.06;52.69;100866.53;4886805;29;20040;-80
2022/06/09 01:03:36;;;;;;;3.88;1.85;;;;;;;21.07;52.46;100868.25;4868060;29;20060;-80
2022/06/09 01:06:06;;;;;;;6.15;2.20;;;;;;;21.06;52.56;100874.38;4870850;29;20021;-80
2022/06/09 01:08:35;;;;;;;4.32;1.70;;;;;;;21.05;52.58;100877.88;4869974;29;20037;-80
2022/06/09 01:11:01;;;;;;;4.28;1.92;;;;;;;21.05;52.45;100875.25;4870014;29;20033;-80
2022/06/09 01:13:27;;;;;;;3.65;1.70;;;;;;;21.06;52.59;100876.16;4854898;29;20136;-81
2022/06/09 01:40:07;;;;;;;3.60;1.63;;;;;;;21.03;52.58;100891.91;5739437;23;20866;-81
2022/06/09 01:42:44;;;;;;;3.60;1.83;;;;;;;21.03;52.61;100897.13;4877936;29;20135;-82
2022/06/09 01:45:15;;;;;;;3.10;1.50;;;;;;;21.03;52.43;100891.91;4875810;29;20021;-81
2022/06/09 01:48:15;;;;;;;3.30;1.63;;;;;;;21.03;52.56;100891.91;4878442;29;20080;-81
2022/06/09 01:53:28;;;;;;;2.50;1.70;;;;;;;21.02;52.70;100892.81;4854963;29;20054;-81
2022/06/09 01:56:15;;;;;;;3.65;1.55;;;;;;;21.00;52.56;100895.44;4855472;29;20093;-81
2022/06/09 02:14:12;;;;;;;2.65;1.30;;;;;;;20.98;52.49;100907.72;5757800;23;20318;-80
2022/06/09 03:44:21;;;;;;;1.95;1.00;;;;;;;20.98;52.23;101027.19;5886551;23;20025;31
2022/06/09 03:46:46;;;;;;;3.58;1.20;;;;;;;20.96;52.21;101028.06;4808447;29;20545;-80
2022/06/09 03:49:11;;;;;;;2.65;1.10;;;;;;;20.96;52.22;101025.47;4794791;29;20035;-80
2022/06/09 03:51:37;;;;;;;2.85;1.10;;;;;;;20.97;52.27;101026.34;4813878;29;20034;-80
2022/06/09 03:54:03;;;;;;;2.45;1.10;;;;;;;20.97;52.26;101034.19;4814899;29;20035;-80
2022/06/09 03:56:29;;;;;;;3.47;1.20;;;;;;;21.00;52.30;101038.50;4827697;29;20038;-80
2022/06/09 03:58:54;;;;;;;2.60;1.10;;;;;;;21.00;51.79;101036.72;4796549;29;20068;-80
2022/06/09 04:01:20;;;;;;;1.95;1.20;;;;;;;21.02;52.09;101044.56;4830207;29;20023;-80
2022/06/09 04:03:47;;;;;;;2.40;1.00;;;;;;;21.04;52.14;101046.25;4818068;29;20030;-80
2022/06/09 04:06:19;;;;;;;4.25;1.25;;;;;;;21.06;52.01;101054.06;4833801;29;20054;-80
2022/06/09 04:08:45;;;;;;;1.77;1.00;;;;;;;21.07;52.03;101055.78;4817706;29;20038;-80
2022/06/09 04:11:11;;;;;;;2.17;1.13;;;;;;;21.08;51.97;101058.38;4819407;29;20050;-80
2022/06/09 04:13:37;;;;;;;2.20;1.10;;;;;;;21.11;51.84;101057.44;4819932;29;20035;-80
2022/06/09 04:48:20;;;;;;;2.70;1.20;;;;;;;21.81;50.70;101093.47;5164655;23;20065;-84
2022/06/09 05:22:32;;;;;;;11.02;2.50;;;;;;;21.30;51.15;101165.25;4115946;27;20074;-81
2022/06/09 05:25:35;;;;;;;6.40;1.90;;;;;;;21.40;51.00;101168.53;4865167;29;20081;-82
2022/06/09 05:31:39;;;;;;;6.70;1.83;;;;;;;21.54;49.56;101164.78;5016554;23;20057;-81
2022/06/09 05:34:04;;;;;;;5.50;1.70;;;;;;;21.45;48.92;101172.81;4883463;29;20033;-82
2022/06/09 05:36:30;;;;;;;6.00;1.63;;;;;;;21.55;48.62;101173.47;4866608;29;20068;-82
2022/06/09 05:47:07;;;;;;;6.47;1.77;;;;;;;21.52;47.73;101195.38;4855636;29;20048;-78
2022/06/09 05:49:32;;;;;;;10.00;2.08;;;;;;;21.55;47.41;101204.91;4850656;29;20041;-83
2022/06/09 05:51:58;;;;;;;10.32;1.92;;;;;;;21.64;47.62;101198.63;4882272;29;20463;-86
2022/06/09 05:54:24;;;;;;;4.28;1.38;;;;;;;21.61;47.78;101199.53;4865823;29;20036;-83
2022/06/09 05:56:49;;;;;;;7.53;1.92;;;;;;;21.62;47.88;101211.72;4866145;29;20037;-82
2022/06/09 05:59:15;;;;;;;5.40;1.55;;;;;;;21.85;47.37;101216.50;4866092;29;20089;-86
2022/06/09 06:01:41;;;;;;;8.35;1.83;;;;;;;22.04;47.24;101214.34;4865711;29;20051;-84
2022/06/09 06:04:08;;;;;;;8.88;1.85;;;;;;;22.58;45.72;101218.34;4849660;29;20080;-84
2022/06/09 06:06:34;;;;;;;5.97;1.80;;;;;;;22.88;45.13;101221.13;4865572;29;20025;-83
2022/06/09 06:09:21;;;;;;;5.55;1.60;;;;;;;23.39;43.80;101226.78;4865402;29;20144;-83
2022/06/09 06:11:47;;;;;;;5.25;1.92;;;;;;;23.58;43.44;101236.75;4864704;29;20033;-83
2022/06/09 06:14:14;;;;;;;5.55;1.65;;;;;;;23.69;43.27;101244.34;4864802;29;20041;-84
2022/06/09 06:16:40;;;;;;;6.05;1.77;;;;;;;23.56;43.22;101243.81;4849265;29;20084;-84
2022/06/09 06:19:08;;;;;;;5.82;1.70;;;;;;;23.94;42.90;101241.91;4864473;29;20017;-81
2022/06/09 06:21:35;;;;;;;4.60;1.70;;;;;;;23.82;43.07;101256.25;4849146;29;20040;-81
2022/06/09 06:24:01;;;;;;;4.78;1.75;;;;;;;23.87;42.71;101261.41;4868391;29;20029;-81
2022/06/09 06:26:26;;;;;;;4.10;1.92;;;;;;;24.15;42.39;101266.66;4849199;29;20037;-82
2022/06/09 06:28:52;;;;;;;4.68;1.90;;;;;;;24.35;42.02;101273.97;4849032;29;20036;-81
2022/06/09 06:31:18;;;;;;;3.35;1.40;;;;;;;23.44;44.01;101278.31;4848973;29;20053;-82
2022/06/09 06:33:44;;;;;;;3.60;1.60;;;;;;;23.81;43.35;101279.03;4881234;29;20041;-81
2022/06/09 06:36:09;;;;;;;5.65;1.33;;;;;;;24.00;42.97;101282.00;4833878;29;20036;-83
2022/06/09 06:38:36;;;;;;;4.78;1.75;;;;;;;24.47;41.70;101281.44;4849104;29;20048;-83
2022/06/09 06:41:12;;;;;;;6.07;1.63;;;;;;;23.54;44.02;101293.78;4864311;29;20029;-84
2022/06/09 06:43:38;;;;;;;4.32;1.63;;;;;;;23.77;43.64;101285.28;4880976;29;20582;-81
2022/06/09 06:46:03;;;;;;;8.55;1.95;;;;;;;23.90;43.36;101295.47;4848805;29;20065;-82
2022/06/09 06:48:29;;;;;;;4.35;1.55;;;;;;;23.57;44.12;101304.22;4848686;29;20382;-83
2022/06/09 06:50:57;;;;;;;4.18;1.58;;;;;;;22.97;45.45;101299.63;4833991;29;20029;-82
2022/06/09 06:53:23;;;;;;;5.00;1.50;;;;;;;22.96;45.83;101306.63;4849769;29;20036;-84
2022/06/09 06:55:48;;;;;;;3.85;1.63;;;;;;;22.68;46.28;101313.44;4849466;29;20021;-86
2022/06/09 06:58:14;;;;;;;4.20;1.55;;;;;;;22.46;46.84;101320.94;4833764;29;20037;-85
2022/06/09 07:00:40;;;;;;;4.00;1.33;;;;;;;22.32;47.30;101329.97;4834033;29;20036;-85
2022/06/09 07:03:07;;;;;;;3.50;1.40;;;;;;;22.72;46.64;101336.09;4834302;29;20041;-84
2022/06/09 07:05:32;;;;;;;2.90;1.60;;;;;;;24.28;42.25;101331.16;4842353;29;20120;-81
2022/06/09 07:07:58;;;;;;;4.65;1.67;;;;;;;23.72;43.75;101331.84;4835237;29;20168;-84
2022/06/09 07:10:24;;;;;;;3.70;1.42;;;;;;;23.45;44.34;101340.44;4834140;29;20037;-82
2022/06/09 07:12:49;;;;;;;4.90;1.42;;;;;;;24.84;41.26;101331.16;4834089;29;20047;-84
2022/06/09 07:15:15;;;;;;;2.85;1.33;;;;;;;24.83;41.15;101333.88;4848397;29;20369;-84
2022/06/09 07:17:42;;;;;;;3.88;1.60;;;;;;;24.63;41.12;101335.38;4863798;29;20065;-84
2022/06/09 07:20:09;;;;;;;4.90;1.50;;;;;;;24.72;41.29;101338.63;4863660;29;20033;-84
2022/06/09 07:22:35;;;;;;;4.03;1.35;;;;;;;23.32;44.35;101347.78;4863891;29;20388;-84
2022/06/09 07:25:01;;;;;;;3.55;1.30;;;;;;;23.59;44.17;101348.84;4864005;29;20033;-84
2022/06/09 07:27:26;;;;;;;4.25;1.40;;;;;;;23.65;44.01;101346.06;4863764;29;20029;-84
2022/06/09 07:29:52;;;;;;;3.53;1.20;;;;;;;24.01;43.09;101351.22;4848138;29;20057;-84
2022/06/09 07:32:18;;;;;;;4.18;1.55;;;;;;;23.42;44.33;101355.38;4834168;29;20108;-84
2022/06/09 07:34:43;;;;;;;4.43;1.50;;;;;;;23.38;44.90;101355.50;4863031;29;20025;-85
2022/06/09 07:37:09;;;;;;;3.55;1.30;;;;;;;23.58;44.36;101363.75;4833332;29;20096;-84
2022/06/09 07:39:35;;;;;;;2.85;1.30;;;;;;;24.81;41.14;101359.38;4848383;29;20519;-84
2022/06/09 07:42:01;;;;;;;3.28;1.30;;;;;;;24.53;41.82;101372.53;4863441;29;20484;-84
2022/06/09 07:44:27;;;;;;;4.05;1.17;;;;;;;24.64;41.75;101368.66;4880532;29;20032;-83
2022/06/09 07:46:52;;;;;;;3.13;1.27;;;;;;;23.75;43.53;101376.44;4837711;29;20037;-83
2022/06/09 07:49:18;;;;;;;2.85;1.20;;;;;;;24.15;43.07;101379.72;4887066;29;20044;-85
2022/06/09 07:51:43;;;;;;;3.63;1.20;;;;;;;24.15;42.57;101379.72;4863715;29;20029;-85
2022/06/09 07:54:09;;;;;;;2.83;1.48;;;;;;;24.18;43.08;101382.28;4833213;29;20597;-85
2022/06/09 07:56:35;;;;;;;2.17;1.10;;;;;;;23.44;44.38;101388.63;4863593;29;20491;-82
2022/06/09 07:59:02;;;;;;;2.92;1.10;;;;;;;23.75;43.89;101391.31;4863818;29;20026;-85
2022/06/09 08:01:28;;;;;;;3.10;1.30;;;;;;;23.91;43.64;101400.56;4863914;29;20093;-85
2022/06/09 08:03:54;;;;;;;2.80;1.35;;;;;;;23.85;43.59;101394.63;4848568;29;20029;-86
2022/06/09 08:06:20;;;;;;;2.72;1.20;;;;;;;23.49;44.49;101395.47;4863918;29;20077;-85
2022/06/09 08:08:46;;;;;;;3.90;1.30;;;;;;;23.65;43.90;101406.47;4848433;29;20025;-84
2022/06/09 08:11:11;;;;;;;2.58;1.25;;;;;;;23.58;44.19;101403.16;4863601;29;20032;-85
2022/06/09 08:13:37;;;;;;;3.78;1.50;;;;;;;23.50;44.55;101415.63;4863939;29;20033;-86
2022/06/09 08:16:03;;;;;;;4.43;1.40;;;;;;;23.47;44.69;101417.44;4863889;29;20033;-86
2022/06/09 08:18:29;;;;;;;2.67;1.27;;;;;;;23.38;44.62;101422.00;4864166;29;20061;-84
2022/06/09 08:20:56;;;;;;;3.28;1.20;;;;;;;23.34;44.65;101428.28;4863970;29;20061;-86
2022/06/09 08:23:25;;;;;;;4.05;1.33;;;;;;;23.32;44.91;101423.94;4863696;29;20484;-85
2022/06/09 08:25:54;;;;;;;3.08;1.20;;;;;;;23.25;45.42;101432.88;4863884;29;20065;-86
2022/06/09 08:28:21;;;;;;;4.25;1.23;;;;;;;23.24;45.62;101442.50;4865677;29;20032;-85
2022/06/09 08:30:51;;;;;;;3.67;1.33;;;;;;;23.16;45.51;101445.31;4872872;29;20068;-86
2022/06/09 08:33:18;;;;;;;4.30;1.38;;;;;;;23.14;45.59;101441.00;4865050;29;20040;-86
2022/06/09 08:35:44;;;;;;;3.97;1.30;;;;;;;23.09;45.78;101437.63;4864879;29;20424;-86
2022/06/09 08:38:10;;;;;;;2.67;1.30;;;;;;;23.05;45.61;101441.22;4833788;29;20089;-85
2022/06/09 08:40:49;;;;;;;3.65;1.05;;;;;;;23.02;45.74;101451.75;4863902;29;20029;-85
2022/06/09 08:43:56;;;;;;;3.88;1.40;;;;;;;22.97;45.72;101455.34;4864425;29;20490;-84
2022/06/09 08:46:25;;;;;;;3.08;1.30;;;;;;;22.91;45.89;101452.88;4806514;29;20039;-85
2022/06/09 08:48:55;;;;;;;2.95;1.23;;;;;;;22.90;46.08;101460.75;4815693;29;20155;-83
2022/06/09 08:51:47;;;;;;;4.15;1.45;;;;;;;22.88;46.18;101465.19;4852500;29;20105;-84
2022/06/09 08:54:18;;;;;;;3.28;1.35;;;;;;;22.89;46.25;101467.78;4888182;29;20054;-85
2022/06/09 08:56:45;;;;;;;4.10;1.45;;;;;;;22.86;46.18;101478.31;4881485;29;20386;-84
2022/06/09 08:59:15;;;;;;;3.00;1.30;;;;;;;22.82;46.24;101471.44;4881200;29;20033;-84
2022/06/09 09:01:45;;;;;;;2.75;1.20;;;;;;;22.76;46.54;101474.19;4883177;29;20025;-81
2022/06/09 09:04:15;;;;;;;3.47;1.00;;;;;;;22.74;46.12;101473.34;4879000;29;20025;-84
2022/06/09 09:06:49;;;;;;;2.03;0.90;;;;;;;22.68;46.62;101473.47;4877537;29;20052;-84
2022/06/09 09:09:22;;;;;;;2.50;1.15;;;;;;;22.62;47.00;101479.69;4868347;29;20025;-83
2022/06/09 09:11:51;;;;;;;3.28;1.27;;;;;;;22.65;46.93;101477.03;4881013;29;20053;-83
2022/06/09 09:14:21;;;;;;;2.88;1.10;;;;;;;22.62;46.57;101484.94;4884489;29;20029;-83
2022/06/09 09:17:08;;;;;;;2.80;1.30;;;;;;;22.63;47.04;101488.47;4883580;29;20406;-83
2022/06/09 09:19:37;;;;;;;2.72;1.10;;;;;;;22.62;46.74;101498.06;4866759;29;20032;-82
2022/06/09 09:22:05;;;;;;;3.28;1.25;;;;;;;22.58;46.85;101499.03;4867053;29;20033;-85
2022/06/09 09:24:44;;;;;;;2.60;1.10;;;;;;;22.53;47.21;101495.63;4867456;29;20036;-87
2022/06/09 09:40:44;;;;;;;2.10;1.20;;;;;;;22.45;47.21;101526.38;4887808;29;20040;-85
2022/06/09 09:43:16;;;;;;;2.90;1.20;;;;;;;22.45;47.56;101523.75;4869010;29;20032;-85
2022/06/09 09:45:43;;;;;;;2.65;1.20;;;;;;;22.46;47.34;101541.25;4869636;29;20068;-85
2022/06/09 09:48:19;;;;;;;2.53;1.17;;;;;;;22.41;47.60;101543.94;4870957;29;20081;-85
2022/06/09 09:53:58;;;;;;;2.05;0.95;;;;;;;22.34;47.95;101545.81;4898880;29;20548;-84
2022/06/09 09:56:34;;;;;;;4.63;1.23;;;;;;;22.31;47.74;101552.88;4870288;29;20021;-85
2022/06/09 09:59:02;;;;;;;3.65;1.30;;;;;;;22.31;48.14;101569.47;4870318;29;20062;-84
2022/06/09 10:14:54;;;;;;;3.85;1.30;;;;;;;22.20;47.95;101587.09;5051212;23;20061;-84
2022/06/09 11:05:29;;;;;;;5.72;1.38;;;;;;;22.14;48.43;101624.75;4952814;23;20064;-83
2022/06/09 11:54:10;;;;;;;3.42;1.50;;;;;;;22.07;48.75;101657.22;5131326;23;20057;-87
2022/06/09 12:19:32;;;;;;;3.03;1.38;;;;;;;22.08;48.74;101668.56;4950796;23;20121;-80
2022/06/09 12:22:33;;;;;;;4.35;1.50;;;;;;;22.08;48.85;101679.94;4878016;29;20515;-81
2022/06/09 12:25:24;;;;;;;3.53;1.45;;;;;;;22.10;48.57;101682.50;4880038;29;20031;-81
2022/06/09 12:27:51;;;;;;;3.25;1.48;;;;;;;22.09;48.90;101681.66;4880181;29;20504;-81
2022/06/09 12:30:38;;;;;;;3.22;1.52;;;;;;;22.10;48.74;101679.88;4879525;29;20048;-81
2022/06/09 12:33:16;;;;;;;4.50;1.52;;;;;;;22.09;48.88;101689.50;4881216;29;20044;-81
2022/06/09 12:35:53;;;;;;;4.28;1.40;;;;;;;22.09;48.74;101691.28;4880120;29;20036;-82
2022/06/09 12:42:01;;;;;;;5.10;1.80;;;;;;;22.11;48.74;101694.75;4904558;29;20167;-82
2022/06/09 12:45:13;;;;;;;3.05;1.30;;;;;;;22.11;48.68;101700.00;4882887;29;20029;-80
2022/06/09 12:48:09;;;;;;;3.25;1.38;;;;;;;22.11;48.74;101700.00;4889550;29;20057;-81
2022/06/09 12:50:56;;;;;;;4.00;1.67;;;;;;;22.11;48.81;101703.47;4878488;29;20035;-81
2022/06/09 12:53:49;;;;;;;3.40;1.35;;;;;;;22.13;48.91;101706.06;4878323;29;20036;-81
2022/06/09 12:56:49;;;;;;;3.33;1.25;;;;;;;22.12;48.61;101709.56;4821937;29;20038;-81
2022/06/09 12:59:28;;;;;;;3.42;1.40;;;;;;;22.13;48.82;101716.56;4806962;29;20034;-81
2022/06/09 13:02:30;;;;;;;3.15;1.40;;;;;;;22.14;48.67;101713.03;4820804;29;20035;-81
2022/06/09 13:05:20;;;;;;;2.97;1.40;;;;;;;22.16;48.51;101719.13;4834187;29;20026;-81
2022/06/09 13:08:12;;;;;;;3.35;1.30;;;;;;;22.17;48.61;101724.34;4820930;29;20069;-81
2022/06/09 13:10:43;;;;;;;4.00;1.70;;;;;;;22.17;48.38;101732.22;4817975;29;20079;-81
2022/06/09 13:43:46;;;;;;;3.35;1.23;;;;;;;22.26;48.61;101764.47;4983299;23;20078;-85
2022/06/09 14:00:02;;;;;;;3.70;1.45;;;;;;;22.30;48.59;101798.50;4872038;29;20052;-85
2022/06/09 14:12:35;;;;;;;2.95;1.33;;;;;;;22.34;48.36;101808.06;4897184;29;20044;-86
2022/06/09 14:15:08;;;;;;;3.45;1.33;;;;;;;22.33;48.58;101806.31;4877709;29;20025;-86
2022/06/09 14:27:31;;;;;;;3.60;1.10;;;;;;;22.39;48.35;101821.09;4952904;23;20057;-85
2022/06/09 14:29:56;;;;;;;2.72;1.20;;;;;;;22.40;48.22;101817.56;4843306;29;20404;-84
2022/06/09 14:32:21;;;;;;;3.47;1.20;;;;;;;22.40;48.31;101828.06;4857921;29;20029;-84
2022/06/09 14:47:14;;;;;;;3.47;1.10;;;;;;;22.55;48.59;101834.84;4897124;29;20048;-81
2022/06/09 14:49:40;;;;;;;14.98;1.95;;;;;;;22.70;49.15;101836.38;4867285;29;20477;-83
2022/06/09 14:52:09;;;;;;;8.13;1.40;;;;;;;22.73;49.25;101838.94;4868243;29;20044;-80
2022/06/09 14:54:36;;;;;;;9.13;1.77;;;;;;;22.71;49.00;101833.75;4883400;29;20116;-83
2022/06/09 14:57:03;;;;;;;5.20;1.30;;;;;;;22.63;49.02;101843.47;4864672;29;20101;-80
2022/06/09 14:59:28;;;;;;;7.22;1.38;;;;;;;22.58;49.18;101843.56;4864405;29;20585;-79
2022/06/09 15:01:55;;;;;;;7.88;1.70;;;;;;;22.54;48.89;101849.72;4833693;29;20064;-79
2022/06/09 15:04:20;;;;;;;7.28;1.50;;;;;;;22.53;48.96;101845.34;4833490;29;20033;-79
2022/06/09 15:06:46;;;;;;;4.30;1.15;;;;;;;22.52;49.06;101845.41;4848652;29;20044;-79
2022/06/09 15:09:12;;;;;;;8.25;1.30;;;;;;;22.52;49.10;101853.28;4833379;29;20035;-79
2022/06/09 15:11:38;;;;;;;3.30;1.30;;;;;;;22.50;48.78;101842.78;4863720;29;20037;-79
2022/06/09 15:14:03;;;;;;;6.60;1.27;;;;;;;22.50;48.53;101849.81;4863610;29;20064;-79
2022/06/09 15:16:29;;;;;;;5.63;1.27;;;;;;;22.51;48.73;101848.88;4863655;29;20036;-79
2022/06/09 15:18:56;;;;;;;4.97;1.23;;;;;;;22.51;48.84;101859.38;4833158;29;20105;-79
2022/06/09 15:21:22;;;;;;;4.47;1.40;;;;;;;22.51;48.52;101855.00;4848165;29;20047;-79
2022/06/09 15:23:48;;;;;;;5.90;1.58;;;;;;;22.51;48.26;101856.75;4863778;29;20033;-79
2022/06/09 15:26:15;;;;;;;5.10;1.50;;;;;;;22.51;48.50;101857.63;4863712;29;20123;-80
2022/06/09 15:28:41;;;;;;;3.13;1.30;;;;;;;22.51;48.48;101854.13;4869615;29;20033;-79
2022/06/09 15:31:06;;;;;;;3.63;1.30;;;;;;;22.51;48.39;101847.13;4848657;29;20025;-79
2022/06/09 15:33:33;;;;;;;4.80;1.05;;;;;;;22.52;48.03;101853.28;4833216;29;20061;-82
2022/06/09 15:35:58;;;;;;;2.50;1.00;;;;;;;22.51;48.32;101859.38;4863687;29;20036;-78
2022/06/09 15:38:24;;;;;;;4.22;1.63;;;;;;;22.51;48.25;101859.38;4848111;29;20025;-78
2022/06/09 15:40:51;;;;;;;5.15;1.58;;;;;;;22.50;48.08;101866.41;4848156;29;20396;-78
2022/06/09 15:43:17;;;;;;;4.15;1.30;;;;;;;22.50;47.98;101852.41;4866724;29;20037;-88
2022/06/09 15:45:46;;;;;;;6.07;1.67;;;;;;;22.50;48.12;101852.41;4877632;29;20045;-89
2022/06/09 15:48:19;;;;;;;3.35;1.40;;;;;;;22.51;48.15;101856.75;4877996;29;20048;-89
2022/06/09 15:50:45;;;;;;;3.67;1.40;;;;;;;22.50;47.99;101865.53;4877623;29;20025;-90
2022/06/09 15:53:12;;;;;;;4.07;1.55;;;;;;;22.49;47.78;101856.78;4879224;29;20139;-88
2022/06/09 15:55:38;;;;;;;3.80;1.23;;;;;;;22.50;47.90;101861.16;4876913;29;20031;-89
2022/06/09 15:58:04;;;;;;;8.95;1.70;;;;;;;22.50;47.66;101858.53;4866972;29;20037;-89
2022/06/09 16:00:34;;;;;;;3.35;1.27;;;;;;;22.50;47.87;101855.03;4849201;29;20080;-92
2022/06/09 16:03:00;;;;;;;4.72;1.50;;;;;;;22.49;47.48;101846.28;4879524;29;20064;-89
2022/06/09 16:05:27;;;;;;;6.68;1.48;;;;;;;22.50;47.54;101858.53;4878690;29;20089;-89
2022/06/09 16:07:54;;;;;;;5.63;1.70;;;;;;;22.49;47.59;101854.16;4884107;29;20475;-79
2022/06/09 16:10:35;;;;;;;4.85;1.42;;;;;;;22.50;47.61;101855.91;4869262;29;20044;-79
2022/06/09 16:13:00;;;;;;;4.05;1.50;;;;;;;22.50;47.46;101863.78;4867229;29;20044;-78
2022/06/09 16:15:26;;;;;;;4.20;1.45;;;;;;;22.50;47.58;101861.16;4867461;29;20025;-79
2022/06/09 16:17:52;;;;;;;7.43;1.75;;;;;;;22.51;47.63;101856.75;4867080;29;20492;-80
2022/06/09 16:20:22;;;;;;;4.93;1.48;;;;;;;22.50;47.50;101861.16;4867624;29;20120;-79
2022/06/09 16:22:50;;;;;;;4.25;1.55;;;;;;;22.49;47.08;101862.03;4866826;29;20373;-79
2022/06/09 16:25:16;;;;;;;4.85;1.60;;;;;;;22.50;46.94;101874.25;4867714;29;20025;-79
2022/06/09 16:27:41;;;;;;;4.63;1.50;;;;;;;22.50;47.26;101873.41;4866489;29;20059;-80
2022/06/09 16:30:08;;;;;;;4.63;1.50;;;;;;;22.51;47.23;101877.75;4851098;29;20056;-79
2022/06/09 16:32:33;;;;;;;4.15;1.45;;;;;;;22.50;47.14;101870.78;4866600;29;20029;-80
2022/06/09 16:34:59;;;;;;;5.20;1.60;;;;;;;22.51;46.96;101877.75;4851135;29;20036;-79
2022/06/09 16:37:24;;;;;;;3.97;1.40;;;;;;;22.51;47.13;101877.75;4866579;29;20033;-79
2022/06/09 16:39:50;;;;;;;4.88;1.67;;;;;;;22.50;46.97;101865.53;4835789;29;20037;-79
2022/06/09 16:42:16;;;;;;;6.15;1.80;;;;;;;22.50;46.74;101870.78;4866289;29;20052;-79
2022/06/09 16:44:42;;;;;;;5.70;1.48;;;;;;;22.50;46.68;101865.53;4835669;29;21948;-79
2022/06/09 16:47:08;;;;;;;5.32;1.50;;;;;;;22.51;46.52;101872.50;4884064;29;20508;-80
2022/06/09 16:49:34;;;;;;;5.45;1.70;;;;;;;22.50;46.76;101873.41;4866250;29;20045;-79
2022/06/09 16:51:59;;;;;;;5.07;1.60;;;;;;;22.51;46.59;101881.22;4841920;29;20029;-79
2022/06/09 16:54:25;;;;;;;4.30;1.60;;;;;;;22.50;46.35;101879.50;4836345;29;20560;-80
2022/06/09 16:56:50;;;;;;;4.40;1.50;;;;;;;22.51;46.25;101885.63;4851416;29;20059;-79
2022/06/09 16:59:16;;;;;;;6.88;1.70;;;;;;;22.51;46.13;101885.63;4836051;29;20385;-79
2022/06/09 17:01:41;;;;;;;6.28;1.70;;;;;;;22.50;46.40;101878.66;4851989;29;20531;-79
2022/06/09 17:04:07;;;;;;;5.95;1.70;;;;;;;22.50;46.24;101887.38;4850849;29;20552;-79
2022/06/09 17:06:33;;;;;;;4.53;1.80;;;;;;;22.50;45.85;101891.75;4865714;29;20394;-79
2022/06/09 17:09:00;;;;;;;5.25;1.60;;;;;;;22.50;45.87;101894.38;4861988;29;20393;-90
2022/06/09 17:11:27;;;;;;;4.20;1.42;;;;;;;22.50;46.11;101889.16;4856989;29;20033;-78
2022/06/09 17:13:54;;;;;;;4.75;1.50;;;;;;;22.49;45.94;101893.50;4850433;29;20472;-78
2022/06/09 17:16:19;;;;;;;4.65;1.60;;;;;;;22.47;46.11;101890.06;4850423;29;20076;-78
2022/06/09 17:18:45;;;;;;;7.72;1.67;;;;;;;22.47;45.68;101884.81;4865759;29;20124;-79
2022/06/09 17:21:12;;;;;;;4.82;1.45;;;;;;;22.48;45.60;101890.91;4866065;29;20029;-79
2022/06/09 17:23:38;;;;;;;4.97;1.65;;;;;;;22.45;45.94;101889.22;4850683;29;20073;-79
2022/06/09 17:26:03;;;;;;;3.95;1.58;;;;;;;22.45;46.04;101889.22;4865653;29;20041;-80
2022/06/09 17:28:29;;;;;;;5.93;1.65;;;;;;;22.46;45.56;101888.31;4865489;29;20384;-78
2022/06/09 17:30:56;;;;;;;6.07;1.88;;;;;;;22.46;45.84;101892.69;4865507;29;20503;-79
2022/06/09 17:33:24;;;;;;;5.13;1.90;;;;;;;22.46;45.60;101895.31;4867876;29;20025;-77
2022/06/09 17:35:50;;;;;;;5.50;2.33;;;;;;;22.45;45.42;101898.81;4865735;29;20051;-80
2022/06/09 17:38:18;;;;;;;6.28;2.40;;;;;;;22.45;45.73;101904.06;4882311;29;20516;-80
2022/06/09 17:40:44;;;;;;;3.60;1.65;;;;;;;22.44;45.47;101897.94;4866286;29;20033;-79
2022/06/09 17:43:10;;;;;;;4.30;1.75;;;;;;;22.44;45.52;101900.56;4850023;29;20029;-80
2022/06/09 17:45:36;;;;;;;4.68;2.00;;;;;;;22.43;45.33;101903.19;4881659;29;20551;-80
2022/06/09 17:48:04;;;;;;;7.05;2.30;;;;;;;22.43;45.23;101909.34;4850246;29;20477;-80
2022/06/09 17:50:32;;;;;;;6.47;2.53;;;;;;;22.43;45.54;101908.44;4865760;29;20081;-81
2022/06/09 17:52:58;;;;;;;6.88;2.55;;;;;;;22.41;45.15;101902.34;4865973;29;20031;-78
2022/06/09 17:55:27;;;;;;;6.80;2.97;;;;;;;22.43;45.31;101897.97;4865413;29;20383;-80
2022/06/09 17:57:53;;;;;;;6.35;2.90;;;;;;;22.43;45.26;101909.34;4865100;29;20025;-79
2022/06/09 18:00:24;;;;;;;7.80;3.40;;;;;;;22.43;45.31;101908.44;4864876;29;20440;-79
2022/06/09 18:02:50;;;;;;;8.85;4.35;;;;;;;22.42;45.32;101912.84;4865263;29;20085;-79
2022/06/09 18:05:16;;;;;;;7.57;4.13;;;;;;;22.41;45.47;101907.59;4834490;29;20044;-79
2022/06/09 18:07:42;;;;;;;8.65;3.95;;;;;;;22.39;44.94;101910.25;4864942;29;20025;-79
2022/06/09 18:10:12;;;;;;;7.53;3.95;;;;;;;22.38;45.12;101913.75;4834484;29;20100;-79
2022/06/09 18:12:38;;;;;;;7.97;4.07;;;;;;;22.39;45.06;101912.88;4864748;29;20025;-79
2022/06/09 18:15:05;;;;;;;7.60;4.05;;;;;;;22.38;45.27;101911.13;4865954;29;20472;-79
2022/06/09 18:17:30;;;;;;;9.10;4.10;;;;;;;22.37;45.19;101907.66;4850044;29;20043;-79
2022/06/09 18:19:55;;;;;;;10.02;4.03;;;;;;;22.36;45.04;101905.94;4863830;29;20025;-80
2022/06/09 18:22:21;;;;;;;9.38;4.25;;;;;;;22.35;44.96;101914.66;4834059;29;20128;-80
2022/06/09 18:24:46;;;;;;;9.20;4.63;;;;;;;22.34;45.23;101915.56;4864635;29;20037;-79
2022/06/09 18:27:12;;;;;;;7.35;4.22;;;;;;;22.32;44.98;101919.97;4849270;29;20107;-80
2022/06/09 18:29:37;;;;;;;9.98;3.95;;;;;;;22.32;44.93;101916.44;4834043;29;20033;-80
2022/06/09 18:32:04;;;;;;;11.77;4.10;;;;;;;22.30;44.84;101916.50;4849207;29;20033;-80
2022/06/09 18:34:30;;;;;;;7.03;3.67;;;;;;;22.31;44.71;101928.69;4865426;29;20057;-80
2022/06/09 18:36:55;;;;;;;7.90;3.72;;;;;;;22.29;44.70;101927.00;4864656;29;20025;-80
2022/06/09 18:39:21;;;;;;;8.60;4.00;;;;;;;22.29;44.93;101925.22;4849652;29;20051;-80
2022/06/09 18:41:48;;;;;;;9.05;3.90;;;;;;;22.28;44.86;101920.03;4834115;29;20480;-80
2022/06/09 18:44:14;;;;;;;6.97;3.53;;;;;;;22.27;44.94;101923.50;4864426;29;20037;-79
2022/06/09 18:46:39;;;;;;;6.85;3.63;;;;;;;22.25;44.80;101918.28;4860922;29;20041;-79